sensor_id;sensor_type;location;lat;lon;timestamp;pressure;altitude;pressure_sealevel;temperature;humidity
42591;BME280;28218;53.342;-6.216;2022-08-19T00:01:49;101001.56;;;16.29;100.00
42591;BME280;28218;53.342;-6.216;2022-08-19T00:04:19;100999.94;;;16.28;100.00
42591;BME280;28218;53.342;-6.216;2022-08-19T00:06:48;101000.13;;;16.27;100.00
42591;BME280;28218;53.342;-6.216;2022-08-19T00:09:18;100999.06;;;16.21;100.00
42591;BME280;28218;53.342;-6.216;2022-08-19T00:11:49;101001.53;;;16.23;100.00
42591;BME280;28218;53.342;-6.216;2022-08-19T00:14:18;100993.56;;;16.23;100.00
42591;BME280;28218;53.342;-6.216;2022-08-19T00:16:47;101001.50;;;16.16;100.00
42591;BME280;28218;53.342;-6.216;2022-08-19T00:19:16;101004.75;;;16.12;100.00
42591;BME280;28218;53.342;-6.216;2022-08-19T00:21:44;101009.06;;;16.13;100.00
42591;BME280;28218;53.342;-6.216;2022-08-19T00:24:13;101002.69;;;16.07;100.00
42591;BME280;28218;53.342;-6.216;2022-08-19T00:26:43;101009.03;;;16.06;100.00
42591;BME280;28218;53.342;-6.216;2022-08-19T00:29:15;101010.88;;;16.05;100.00
42591;BME280;28218;53.342;-6.216;2022-08-19T00:31:45;101008.38;;;16.04;100.00
42591;BME280;28218;53.342;-6.216;2022-08-19T00:34:16;101010.66;;;16.00;100.00
42591;BME280;28218;53.342;-6.216;2022-08-19T00:36:45;101021.28;;;16.00;100.00
42591;BME280;28218;53.342;-6.216;2022-08-19T00:39:14;101011.63;;;15.99;100.00
42591;BME280;28218;53.342;-6.216;2022-08-19T00:41:44;101002.69;;;16.00;100.00
42591;BME280;28218;53.342;-6.216;2022-08-19T00:44:17;101005.72;;;15.97;100.00
42591;BME280;28218;53.342;-6.216;2022-08-19T00:46:53;101009.84;;;16.00;100.00
42591;BME280;28218;53.342;-6.216;2022-08-19T00:49:27;101008.38;;;15.97;100.00
42591;BME280;28218;53.342;-6.216;2022-08-19T00:52:00;101006.50;;;15.91;100.00
42591;BME280;28218;53.342;-6.216;2022-08-19T00:54:30;101001.38;;;15.90;100.00
42591;BME280;28218;53.342;-6.216;2022-08-19T00:57:01;100991.97;;;15.87;100.00
42591;BME280;28218;53.342;-6.216;2022-08-19T00:59:31;100998.09;;;15.88;100.00
42591;BME280;28218;53.342;-6.216;2022-08-19T01:02:19;100994.63;;;15.87;100.00
42591;BME280;28218;53.342;-6.216;2022-08-19T01:04:47;100994.63;;;15.87;100.00
42591;BME280;28218;53.342;-6.216;2022-08-19T01:07:16;100993.00;;;15.86;100.00
42591;BME280;28218;53.342;-6.216;2022-08-19T01:09:46;100996.84;;;15.83;100.00
42591;BME280;28218;53.342;-6.216;2022-08-19T01:12:14;100991.53;;;15.83;100.00
42591;BME280;28218;53.342;-6.216;2022-08-19T01:14:45;100991.31;;;15.85;100.00
42591;BME280;28218;53.342;-6.216;2022-08-19T01:17:14;100987.84;;;15.84;100.00
42591;BME280;28218;53.342;-6.216;2022-08-19T01:19:45;100996.84;;;15.83;100.00
42591;BME280;28218;53.342;-6.216;2022-08-19T01:22:18;101007.03;;;15.80;100.00
42591;BME280;28218;53.342;-6.216;2022-08-19T01:24:58;100994.56;;;15.80;100.00
42591;BME280;28218;53.342;-6.216;2022-08-19T01:27:27;101001.34;;;15.83;100.00
42591;BME280;28218;53.342;-6.216;2022-08-19T01:30:13;100991.09;;;15.80;100.00
42591;BME280;28218;53.342;-6.216;2022-08-19T01:32:41;101007.25;;;15.78;100.00
42591;BME280;28218;53.342;-6.216;2022-08-19T01:35:11;100999.28;;;15.78;100.00
42591;BME280;28218;53.342;-6.216;2022-08-19T01:37:45;100992.50;;;15.76;100.00
42591;BME280;28218;53.342;-6.216;2022-08-19T01:40:16;100993.53;;;15.75;100.00
42591;BME280;28218;53.342;-6.216;2022-08-19T01:42:46;100994.53;;;15.74;100.00
42591;BME280;28218;53.342;-6.216;2022-08-19T01:45:15;100992.50;;;15.76;100.00
42591;BME280;28218;53.342;-6.216;2022-08-19T01:47:43;100985.75;;;15.73;100.00
42591;BME280;28218;53.342;-6.216;2022-08-19T01:50:28;100982.47;;;15.71;100.00
42591;BME280;28218;53.342;-6.216;2022-08-19T01:52:57;100979.63;;;15.73;100.00
42591;BME280;28218;53.342;-6.216;2022-08-19T01:55:34;100981.63;;;15.71;100.00
42591;BME280;28218;53.342;-6.216;2022-08-19T01:58:09;100985.31;;;15.70;100.00
42591;BME280;28218;53.342;-6.216;2022-08-19T02:00:39;100989.00;;;15.69;100.00
42591;BME280;28218;53.342;-6.216;2022-08-19T02:03:08;100986.94;;;15.64;100.00
42591;BME280;28218;53.342;-6.216;2022-08-19T02:05:38;100987.75;;;15.65;100.00
42591;BME280;28218;53.342;-6.216;2022-08-19T02:08:08;100991.41;;;15.64;100.00
42591;BME280;28218;53.342;-6.216;2022-08-19T02:10:40;100986.72;;;15.66;100.00
42591;BME280;28218;53.342;-6.216;2022-08-19T02:13:11;100991.22;;;15.65;100.00
42591;BME280;28218;53.342;-6.216;2022-08-19T02:15:40;100985.25;;;15.63;100.00
42591;BME280;28218;53.342;-6.216;2022-08-19T02:18:08;100993.69;;;15.67;100.00
42591;BME280;28218;53.342;-6.216;2022-08-19T02:20:38;101000.44;;;15.69;100.00
42591;BME280;28218;53.342;-6.216;2022-08-19T02:23:07;100986.09;;;15.64;100.00
42591;BME280;28218;53.342;-6.216;2022-08-19T02:25:45;100985.25;;;15.63;100.00
42591;BME280;28218;53.342;-6.216;2022-08-19T02:28:14;100988.75;;;15.64;100.00
42591;BME280;28218;53.342;-6.216;2022-08-19T02:30:45;100985.63;;;15.60;100.00
42591;BME280;28218;53.342;-6.216;2022-08-19T02:33:15;100989.53;;;15.57;100.00
42591;BME280;28218;53.342;-6.216;2022-08-19T02:35:44;100977.44;;;15.55;100.00
42591;BME280;28218;53.342;-6.216;2022-08-19T02:38:14;100979.84;;;15.50;100.00
42591;BME280;28218;53.342;-6.216;2022-08-19T02:40:57;100971.44;;;15.46;100.00
42591;BME280;28218;53.342;-6.216;2022-08-19T02:43:27;100974.75;;;15.48;100.00
42591;BME280;28218;53.342;-6.216;2022-08-19T02:46:00;100972.47;;;15.45;100.00
42591;BME280;28218;53.342;-6.216;2022-08-19T02:48:29;100970.84;;;15.44;100.00
42591;BME280;28218;53.342;-6.216;2022-08-19T02:50:59;100970.19;;;15.42;100.00
42591;BME280;28218;53.342;-6.216;2022-08-19T02:53:28;100967.94;;;15.39;100.00
42591;BME280;28218;53.342;-6.216;2022-08-19T02:55:58;100967.13;;;15.39;100.00
42591;BME280;28218;53.342;-6.216;2022-08-19T02:58:26;100973.88;;;15.41;100.00
42591;BME280;28218;53.342;-6.216;2022-08-19T03:00:55;100968.94;;;15.38;100.00
42591;BME280;28218;53.342;-6.216;2022-08-19T03:03:24;100976.72;;;15.40;100.00
42591;BME280;28218;53.342;-6.216;2022-08-19T03:06:03;100969.94;;;15.37;100.00
42591;BME280;28218;53.342;-6.216;2022-08-19T03:08:31;100979.75;;;15.37;100.00
42591;BME280;28218;53.342;-6.216;2022-08-19T03:11:01;100977.47;;;15.33;100.00
42591;BME280;28218;53.342;-6.216;2022-08-19T03:13:30;100979.13;;;15.34;100.00
42591;BME280;28218;53.342;-6.216;2022-08-19T03:15:58;100973.00;;;15.34;100.00
42591;BME280;28218;53.342;-6.216;2022-08-19T03:18:26;100965.03;;;15.34;100.00
42591;BME280;28218;53.342;-6.216;2022-08-19T03:20:54;100965.03;;;15.34;100.00
42591;BME280;28218;53.342;-6.216;2022-08-19T03:23:23;100975.03;;;15.32;100.00
42591;BME280;28218;53.342;-6.216;2022-08-19T03:25:52;100981.34;;;15.31;100.00
42591;BME280;28218;53.342;-6.216;2022-08-19T03:28:43;100987.25;;;15.26;100.00
42591;BME280;28218;53.342;-6.216;2022-08-19T03:31:19;100998.88;;;15.25;100.00
42591;BME280;28218;53.342;-6.216;2022-08-19T03:34:08;100991.09;;;15.24;100.00
42591;BME280;28218;53.342;-6.216;2022-08-19T03:36:38;100985.78;;;15.24;100.00
42591;BME280;28218;53.342;-6.216;2022-08-19T03:39:06;100990.47;;;15.22;100.00
42591;BME280;28218;53.342;-6.216;2022-08-19T03:41:37;100988.84;;;15.21;100.00
42591;BME280;28218;53.342;-6.216;2022-08-19T03:44:13;100987.00;;;15.21;100.00
42591;BME280;28218;53.342;-6.216;2022-08-19T03:46:45;100980.22;;;15.19;100.00
42591;BME280;28218;53.342;-6.216;2022-08-19T03:49:14;100979.59;;;15.17;100.00
42591;BME280;28218;53.342;-6.216;2022-08-19T03:51:45;100971.00;;;15.15;100.00
42591;BME280;28218;53.342;-6.216;2022-08-19T03:54:17;100972.59;;;15.09;100.00
42591;BME280;28218;53.342;-6.216;2022-08-19T03:56:46;100973.81;;;15.06;100.00
42591;BME280;28218;53.342;-6.216;2022-08-19T03:59:19;100980.94;;;15.06;100.00
42591;BME280;28218;53.342;-6.216;2022-08-19T04:01:48;100984.03;;;15.09;100.00
42591;BME280;28218;53.342;-6.216;2022-08-19T04:04:16;100982.19;;;15.10;100.00
42591;BME280;28218;53.342;-6.216;2022-08-19T04:06:45;100989.34;;;15.09;100.00
42591;BME280;28218;53.342;-6.216;2022-08-19T04:09:15;100991.81;;;15.11;100.00
42591;BME280;28218;53.342;-6.216;2022-08-19T04:11:45;101001.63;;;15.11;100.00
42591;BME280;28218;53.342;-6.216;2022-08-19T04:14:18;101006.28;;;15.08;100.00
42591;BME280;28218;53.342;-6.216;2022-08-19T04:16:47;101010.56;;;15.09;100.00
42591;BME280;28218;53.342;-6.216;2022-08-19T04:19:17;101017.53;;;15.11;100.00
42591;BME280;28218;53.342;-6.216;2022-08-19T04:21:48;101011.59;;;15.08;100.00
42591;BME280;28218;53.342;-6.216;2022-08-19T04:24:17;101018.94;;;15.06;100.00
42591;BME280;28218;53.342;-6.216;2022-08-19T04:26:46;101020.13;;;15.04;100.00
42591;BME280;28218;53.342;-6.216;2022-08-19T04:29:18;101014.00;;;15.03;100.00
42591;BME280;28218;53.342;-6.216;2022-08-19T04:31:48;101017.66;;;15.02;100.00
42591;BME280;28218;53.342;-6.216;2022-08-19T04:34:18;101014.34;;;15.00;100.00
42591;BME280;28218;53.342;-6.216;2022-08-19T04:36:49;101018.84;;;15.00;100.00
42591;BME280;28218;53.342;-6.216;2022-08-19T04:39:20;101021.31;;;15.01;100.00
42591;BME280;28218;53.342;-6.216;2022-08-19T04:41:49;101018.03;;;14.99;100.00
42591;BME280;28218;53.342;-6.216;2022-08-19T04:44:36;101019.03;;;14.98;100.00
42591;BME280;28218;53.342;-6.216;2022-08-19T04:47:12;101026.56;;;14.95;100.00
42591;BME280;28218;53.342;-6.216;2022-08-19T04:49:40;101027.22;;;14.97;100.00
42591;BME280;28218;53.342;-6.216;2022-08-19T04:52:08;101028.38;;;14.94;100.00
42591;BME280;28218;53.342;-6.216;2022-08-19T04:54:36;101024.72;;;14.95;100.00
42591;BME280;28218;53.342;-6.216;2022-08-19T04:57:07;101033.34;;;14.97;100.00
42591;BME280;28218;53.342;-6.216;2022-08-19T04:59:38;101026.38;;;14.96;100.00
42591;BME280;28218;53.342;-6.216;2022-08-19T05:02:08;101034.34;;;14.96;100.00
42591;BME280;28218;53.342;-6.216;2022-08-19T05:04:37;101041.91;;;14.99;100.00
42591;BME280;28218;53.342;-6.216;2022-08-19T05:07:06;101048.69;;;15.02;100.00
42591;BME280;28218;53.342;-6.216;2022-08-19T05:09:35;101050.31;;;15.03;100.00
42591;BME280;28218;53.342;-6.216;2022-08-19T05:12:24;101041.91;;;14.99;100.00
42591;BME280;28218;53.342;-6.216;2022-08-19T05:14:57;101052.34;;;15.01;100.00
42591;BME280;28218;53.342;-6.216;2022-08-19T05:17:26;101054.34;;;14.99;100.00
42591;BME280;28218;53.342;-6.216;2022-08-19T05:20:00;101052.72;;;14.98;100.00
42591;BME280;28218;53.342;-6.216;2022-08-19T05:22:47;101057.56;;;14.94;100.00
42591;BME280;28218;53.342;-6.216;2022-08-19T05:25:18;101051.09;;;14.97;100.00
42591;BME280;28218;53.342;-6.216;2022-08-19T05:27:47;101057.22;;;14.97;100.00
42591;BME280;28218;53.342;-6.216;2022-08-19T05:30:17;101056.56;;;14.95;100.00
42591;BME280;28218;53.342;-6.216;2022-08-19T05:33:06;101061.25;;;14.93;100.00
42591;BME280;28218;53.342;-6.216;2022-08-19T05:35:36;101067.38;;;14.94;100.00
42591;BME280;28218;53.342;-6.216;2022-08-19T05:38:05;101072.44;;;14.89;100.00
42591;BME280;28218;53.342;-6.216;2022-08-19T05:40:34;101079.38;;;14.90;100.00
42591;BME280;28218;53.342;-6.216;2022-08-19T05:43:03;101071.66;;;14.95;100.00
42591;BME280;28218;53.342;-6.216;2022-08-19T05:45:38;101075.78;;;14.97;100.00
42591;BME280;28218;53.342;-6.216;2022-08-19T05:48:06;101081.91;;;14.98;100.00
42591;BME280;28218;53.342;-6.216;2022-08-19T05:50:38;101089.69;;;14.99;100.00
42591;BME280;28218;53.342;-6.216;2022-08-19T05:53:07;101097.84;;;14.98;100.00
42591;BME280;28218;53.342;-6.216;2022-08-19T05:55:36;101094.97;;;14.99;100.00
42591;BME280;28218;53.342;-6.216;2022-08-19T05:58:06;101098.66;;;14.98;100.00
42591;BME280;28218;53.342;-6.216;2022-08-19T06:00:36;101104.41;;;15.02;100.00
42591;BME280;28218;53.342;-6.216;2022-08-19T06:03:05;101107.50;;;15.05;100.00
42591;BME280;28218;53.342;-6.216;2022-08-19T06:05:40;101104.84;;;15.05;100.00
42591;BME280;28218;53.342;-6.216;2022-08-19T06:08:18;101108.75;;;15.09;100.00
42591;BME280;28218;53.342;-6.216;2022-08-19T06:11:13;101112.53;;;15.15;100.00
42591;BME280;28218;53.342;-6.216;2022-08-19T06:13:41;101106.19;;;15.16;100.00
42591;BME280;28218;53.342;-6.216;2022-08-19T06:16:11;101115.59;;;15.19;100.00
42591;BME280;28218;53.342;-6.216;2022-08-19T06:18:39;101117.88;;;15.22;100.00
42591;BME280;28218;53.342;-6.216;2022-08-19T06:21:07;101118.75;;;15.29;100.00
42591;BME280;28218;53.342;-6.216;2022-08-19T06:23:36;101118.19;;;15.33;100.00
42591;BME280;28218;53.342;-6.216;2022-08-19T06:26:04;101120.94;;;15.40;100.00
42591;BME280;28218;53.342;-6.216;2022-08-19T06:28:32;101124.28;;;15.49;100.00
42591;BME280;28218;53.342;-6.216;2022-08-19T06:31:06;101129.03;;;15.53;100.00
42591;BME280;28218;53.342;-6.216;2022-08-19T06:33:35;101134.19;;;15.62;100.00
42591;BME280;28218;53.342;-6.216;2022-08-19T06:36:04;101139.19;;;15.71;100.00
42591;BME280;28218;53.342;-6.216;2022-08-19T06:38:33;101131.88;;;15.73;100.00
42591;BME280;28218;53.342;-6.216;2022-08-19T06:41:02;101136.16;;;15.74;100.00
42591;BME280;28218;53.342;-6.216;2022-08-19T06:43:33;101134.97;;;15.77;100.00
42591;BME280;28218;53.342;-6.216;2022-08-19T06:46:10;101134.16;;;15.76;100.00
42591;BME280;28218;53.342;-6.216;2022-08-19T06:48:41;101131.66;;;15.75;100.00
42591;BME280;28218;53.342;-6.216;2022-08-19T06:51:12;101135.16;;;15.75;100.00
42591;BME280;28218;53.342;-6.216;2022-08-19T06:53:45;101133.06;;;15.71;100.00
42591;BME280;28218;53.342;-6.216;2022-08-19T06:56:15;101136.75;;;15.70;100.00
42591;BME280;28218;53.342;-6.216;2022-08-19T06:58:43;101135.56;;;15.72;100.00
42591;BME280;28218;53.342;-6.216;2022-08-19T07:01:13;101142.28;;;15.75;100.00
42591;BME280;28218;53.342;-6.216;2022-08-19T07:03:42;101131.91;;;15.80;100.00
42591;BME280;28218;53.342;-6.216;2022-08-19T07:06:13;101134.00;;;15.84;100.00
42591;BME280;28218;53.342;-6.216;2022-08-19T07:09:05;101138.31;;;15.86;100.00
42591;BME280;28218;53.342;-6.216;2022-08-19T07:11:33;101138.31;;;15.86;100.00
42591;BME280;28218;53.342;-6.216;2022-08-19T07:14:02;101139.75;;;15.88;100.00
42591;BME280;28218;53.342;-6.216;2022-08-19T07:16:30;101145.97;;;15.95;100.00
42591;BME280;28218;53.342;-6.216;2022-08-19T07:19:00;101138.63;;;16.04;100.00
42591;BME280;28218;53.342;-6.216;2022-08-19T07:21:42;101142.53;;;16.36;100.00
42591;BME280;28218;53.342;-6.216;2022-08-19T07:24:10;101139.38;;;16.60;100.00
42591;BME280;28218;53.342;-6.216;2022-08-19T07:26:41;101141.28;;;16.67;100.00
42591;BME280;28218;53.342;-6.216;2022-08-19T07:29:11;101137.19;;;16.71;100.00
42591;BME280;28218;53.342;-6.216;2022-08-19T07:31:39;101138.00;;;16.71;100.00
42591;BME280;28218;53.342;-6.216;2022-08-19T07:34:11;101133.06;;;16.68;100.00
42591;BME280;28218;53.342;-6.216;2022-08-19T07:36:43;101146.00;;;16.71;100.00
42591;BME280;28218;53.342;-6.216;2022-08-19T07:39:13;101137.63;;;16.74;100.00
42591;BME280;28218;53.342;-6.216;2022-08-19T07:41:42;101127.47;;;16.84;100.00
42591;BME280;28218;53.342;-6.216;2022-08-19T07:44:12;101130.75;;;16.93;100.00
42591;BME280;28218;53.342;-6.216;2022-08-19T07:46:43;101135.88;;;16.95;100.00
42591;BME280;28218;53.342;-6.216;2022-08-19T07:49:17;101127.09;;;16.94;100.00
42591;BME280;28218;53.342;-6.216;2022-08-19T07:51:47;101129.75;;;16.94;100.00
42591;BME280;28218;53.342;-6.216;2022-08-19T07:54:17;101141.81;;;16.90;100.00
42591;BME280;28218;53.342;-6.216;2022-08-19T07:56:45;101151.19;;;16.86;100.00
42591;BME280;28218;53.342;-6.216;2022-08-19T07:59:18;101160.59;;;16.82;100.00
42591;BME280;28218;53.342;-6.216;2022-08-19T08:01:47;101161.81;;;16.79;100.00
42591;BME280;28218;53.342;-6.216;2022-08-19T08:04:18;101173.31;;;16.80;100.00
42591;BME280;28218;53.342;-6.216;2022-08-19T08:07:05;101169.66;;;16.94;100.00
42591;BME280;28218;53.342;-6.216;2022-08-19T08:09:58;101169.09;;;17.05;100.00
42591;BME280;28218;53.342;-6.216;2022-08-19T08:12:31;101168.50;;;17.10;100.00
42591;BME280;28218;53.342;-6.216;2022-08-19T08:15:06;101166.91;;;17.22;100.00
42591;BME280;28218;53.342;-6.216;2022-08-19T08:17:39;101172.84;;;17.31;100.00
42591;BME280;28218;53.342;-6.216;2022-08-19T08:20:19;101166.94;;;17.42;100.00
42591;BME280;28218;53.342;-6.216;2022-08-19T08:22:47;101160.81;;;17.61;100.00
42591;BME280;28218;53.342;-6.216;2022-08-19T08:25:34;101164.91;;;17.71;100.00
42591;BME280;28218;53.342;-6.216;2022-08-19T08:28:03;101162.84;;;17.73;100.00
42591;BME280;28218;53.342;-6.216;2022-08-19T08:30:32;101162.09;;;17.79;100.00
42591;BME280;28218;53.342;-6.216;2022-08-19T08:33:03;101160.44;;;17.78;100.00
42591;BME280;28218;53.342;-6.216;2022-08-19T08:35:32;101168.63;;;17.70;100.00
42591;BME280;28218;53.342;-6.216;2022-08-19T08:38:01;101176.41;;;17.71;100.00
42591;BME280;28218;53.342;-6.216;2022-08-19T08:40:38;101169.81;;;17.67;100.00
42591;BME280;28218;53.342;-6.216;2022-08-19T08:43:13;101165.75;;;17.78;100.00
42591;BME280;28218;53.342;-6.216;2022-08-19T08:45:52;101172.31;;;17.82;100.00
42591;BME280;28218;53.342;-6.216;2022-08-19T08:48:30;101163.13;;;17.98;100.00
42591;BME280;28218;53.342;-6.216;2022-08-19T08:51:03;101169.03;;;18.06;100.00
42591;BME280;28218;53.342;-6.216;2022-08-19T08:53:35;101164.13;;;18.03;100.00
42591;BME280;28218;53.342;-6.216;2022-08-19T08:56:10;101180.53;;;18.00;100.00
42591;BME280;28218;53.342;-6.216;2022-08-19T08:58:51;101172.31;;;18.02;100.00
42591;BME280;28218;53.342;-6.216;2022-08-19T09:01:22;101163.94;;;17.98;100.00
42591;BME280;28218;53.342;-6.216;2022-08-19T09:03:56;101170.50;;;17.89;100.00
42591;BME280;28218;53.342;-6.216;2022-08-19T09:06:37;101152.25;;;17.93;100.00
42591;BME280;28218;53.342;-6.216;2022-08-19T09:09:14;101157.56;;;17.86;100.00
42591;BME280;28218;53.342;-6.216;2022-08-19T09:11:56;101165.78;;;17.84;100.00
42591;BME280;28218;53.342;-6.216;2022-08-19T09:14:37;101152.44;;;17.91;100.00
42591;BME280;28218;53.342;-6.216;2022-08-19T09:17:19;101161.66;;;18.08;100.00
42591;BME280;28218;53.342;-6.216;2022-08-19T09:19:57;101172.09;;;18.23;100.00
42591;BME280;28218;53.342;-6.216;2022-08-19T09:22:28;101180.06;;;18.43;100.00
42591;BME280;28218;53.342;-6.216;2022-08-19T09:24:57;101178.81;;;18.52;100.00
42591;BME280;28218;53.342;-6.216;2022-08-19T09:27:26;101173.66;;;18.57;100.00
42591;BME280;28218;53.342;-6.216;2022-08-19T09:30:13;101175.06;;;18.67;100.00
42591;BME280;28218;53.342;-6.216;2022-08-19T09:32:42;101160.03;;;18.85;100.00
42591;BME280;28218;53.342;-6.216;2022-08-19T09:35:12;101158.94;;;19.06;100.00
42591;BME280;28218;53.342;-6.216;2022-08-19T09:37:42;101146.69;;;19.24;100.00
42591;BME280;28218;53.342;-6.216;2022-08-19T09:40:12;101150.97;;;19.31;100.00
42591;BME280;28218;53.342;-6.216;2022-08-19T09:42:41;101150.84;;;19.51;100.00
42591;BME280;28218;53.342;-6.216;2022-08-19T09:45:18;101140.94;;;19.58;100.00
42591;BME280;28218;53.342;-6.216;2022-08-19T09:47:49;101153.09;;;19.54;100.00
42591;BME280;28218;53.342;-6.216;2022-08-19T09:50:20;101144.34;;;19.40;100.00
42591;BME280;28218;53.342;-6.216;2022-08-19T09:52:50;101145.56;;;19.38;100.00
42591;BME280;28218;53.342;-6.216;2022-08-19T09:55:26;101151.66;;;19.52;100.00
42591;BME280;28218;53.342;-6.216;2022-08-19T09:57:59;101155.34;;;19.57;100.00
42591;BME280;28218;53.342;-6.216;2022-08-19T10:00:27;101152.72;;;19.76;100.00
42591;BME280;28218;53.342;-6.216;2022-08-19T10:02:56;101142.00;;;19.82;100.00
42591;BME280;28218;53.342;-6.216;2022-08-19T10:05:25;101150.28;;;19.74;100.00
42591;BME280;28218;53.342;-6.216;2022-08-19T10:08:17;101155.72;;;19.61;100.00
42591;BME280;28218;53.342;-6.216;2022-08-19T10:10:47;101149.78;;;19.52;100.00
42591;BME280;28218;53.342;-6.216;2022-08-19T10:13:20;101155.13;;;19.52;100.00
42591;BME280;28218;53.342;-6.216;2022-08-19T10:15:50;101145.72;;;19.50;100.00
42591;BME280;28218;53.342;-6.216;2022-08-19T10:18:23;101134.47;;;19.41;100.00
42591;BME280;28218;53.342;-6.216;2022-08-19T10:21:01;101151.56;;;19.33;100.00
42591;BME280;28218;53.342;-6.216;2022-08-19T10:23:31;101147.50;;;19.24;100.00
42591;BME280;28218;53.342;-6.216;2022-08-19T10:26:01;101149.81;;;19.21;100.00
42591;BME280;28218;53.342;-6.216;2022-08-19T10:28:30;101152.66;;;19.26;100.00
42591;BME280;28218;53.342;-6.216;2022-08-19T10:30:58;101148.94;;;19.27;100.00
42591;BME280;28218;53.342;-6.216;2022-08-19T10:33:26;101160.91;;;19.18;100.00
42591;BME280;28218;53.342;-6.216;2022-08-19T10:36:18;101146.47;;;18.94;100.00
42591;BME280;28218;53.342;-6.216;2022-08-19T10:38:49;101176.50;;;18.82;100.00
42591;BME280;28218;53.342;-6.216;2022-08-19T10:41:25;101165.19;;;18.87;100.00
42591;BME280;28218;53.342;-6.216;2022-08-19T10:43:54;101175.25;;;18.85;100.00
42591;BME280;28218;53.342;-6.216;2022-08-19T10:46:30;101173.78;;;18.89;100.00
42591;BME280;28218;53.342;-6.216;2022-08-19T10:48:59;101176.06;;;18.92;100.00
42591;BME280;28218;53.342;-6.216;2022-08-19T10:51:28;101176.66;;;18.94;100.00
42591;BME280;28218;53.342;-6.216;2022-08-19T10:54:26;101167.00;;;18.93;100.00
42591;BME280;28218;53.342;-6.216;2022-08-19T10:57:15;101167.81;;;18.94;100.00
42591;BME280;28218;53.342;-6.216;2022-08-19T10:59:42;101165.09;;;19.00;100.00
42591;BME280;28218;53.342;-6.216;2022-08-19T11:02:11;101174.56;;;19.03;100.00
42591;BME280;28218;53.342;-6.216;2022-08-19T11:04:40;101169.63;;;19.00;100.00
42591;BME280;28218;53.342;-6.216;2022-08-19T11:07:08;101175.19;;;18.98;100.00
42591;BME280;28218;53.342;-6.216;2022-08-19T11:09:41;101177.22;;;19.03;100.00
42591;BME280;28218;53.342;-6.216;2022-08-19T11:12:09;101178.72;;;18.92;100.00
42591;BME280;28218;53.342;-6.216;2022-08-19T11:14:39;101178.78;;;18.79;100.00
42591;BME280;28218;53.342;-6.216;2022-08-19T11:17:07;101175.91;;;18.74;100.00
42591;BME280;28218;53.342;-6.216;2022-08-19T11:19:37;101176.09;;;18.79;100.00
42591;BME280;28218;53.342;-6.216;2022-08-19T11:22:07;101177.44;;;19.01;100.00
42591;BME280;28218;53.342;-6.216;2022-08-19T11:24:41;101176.47;;;19.34;100.00
42591;BME280;28218;53.342;-6.216;2022-08-19T11:27:09;101173.38;;;19.69;100.00
42591;BME280;28218;53.342;-6.216;2022-08-19T11:29:38;101166.97;;;19.95;100.00
42591;BME280;28218;53.342;-6.216;2022-08-19T11:32:08;101161.63;;;20.20;100.00
42591;BME280;28218;53.342;-6.216;2022-08-19T11:34:37;101156.72;;;20.35;100.00
42591;BME280;28218;53.342;-6.216;2022-08-19T11:37:06;101153.16;;;20.41;100.00
42591;BME280;28218;53.342;-6.216;2022-08-19T11:39:35;101163.69;;;20.61;100.00
42591;BME280;28218;53.342;-6.216;2022-08-19T11:42:07;101153.78;;;20.80;100.00
42591;BME280;28218;53.342;-6.216;2022-08-19T11:44:49;101155.16;;;21.01;100.00
42591;BME280;28218;53.342;-6.216;2022-08-19T11:47:17;101159.84;;;21.17;100.00
42591;BME280;28218;53.342;-6.216;2022-08-19T11:49:46;101156.97;;;21.18;100.00
42591;BME280;28218;53.342;-6.216;2022-08-19T11:52:15;101154.13;;;21.32;100.00
42591;BME280;28218;53.342;-6.216;2022-08-19T11:54:43;101153.03;;;21.51;100.00
42591;BME280;28218;53.342;-6.216;2022-08-19T11:57:12;101159.81;;;21.65;100.00
42591;BME280;28218;53.342;-6.216;2022-08-19T11:59:48;101167.50;;;21.74;100.00
42591;BME280;28218;53.342;-6.216;2022-08-19T12:02:16;101168.38;;;21.98;100.00
42591;BME280;28218;53.342;-6.216;2022-08-19T12:04:45;101165.34;;;22.17;100.00
42591;BME280;28218;53.342;-6.216;2022-08-19T12:07:14;101174.53;;;22.10;100.00
42591;BME280;28218;53.342;-6.216;2022-08-19T12:09:42;101173.63;;;21.92;100.00
42591;BME280;28218;53.342;-6.216;2022-08-19T12:12:13;101184.63;;;21.61;100.00
42591;BME280;28218;53.342;-6.216;2022-08-19T12:14:41;101180.84;;;21.38;100.00
42591;BME280;28218;53.342;-6.216;2022-08-19T12:17:09;101182.56;;;21.33;100.00
42591;BME280;28218;53.342;-6.216;2022-08-19T12:19:39;101181.34;;;21.47;100.00
42591;BME280;28218;53.342;-6.216;2022-08-19T12:22:07;101166.69;;;21.61;100.00
42591;BME280;28218;53.342;-6.216;2022-08-19T12:24:35;101169.59;;;21.72;100.00
42591;BME280;28218;53.342;-6.216;2022-08-19T12:27:04;101157.38;;;21.99;100.00
42591;BME280;28218;53.342;-6.216;2022-08-19T12:29:39;101168.72;;;22.25;100.00
42591;BME280;28218;53.342;-6.216;2022-08-19T12:32:08;101175.03;;;22.07;100.00
42591;BME280;28218;53.342;-6.216;2022-08-19T12:34:38;101155.41;;;21.94;100.00
42591;BME280;28218;53.342;-6.216;2022-08-19T12:37:07;101180.13;;;21.85;100.00
42591;BME280;28218;53.342;-6.216;2022-08-19T12:39:38;101166.22;;;21.64;100.00
42591;BME280;28218;53.342;-6.216;2022-08-19T12:42:08;101183.97;;;21.35;100.00
42591;BME280;28218;53.342;-6.216;2022-08-19T12:44:37;101189.56;;;21.15;100.00
42591;BME280;28218;53.342;-6.216;2022-08-19T12:47:11;101188.56;;;20.98;100.00
42591;BME280;28218;53.342;-6.216;2022-08-19T12:49:42;101184.78;;;20.87;100.00
42591;BME280;28218;53.342;-6.216;2022-08-19T12:52:22;101193.50;;;20.83;100.00
42591;BME280;28218;53.342;-6.216;2022-08-19T12:54:51;101179.94;;;20.78;100.00